createdAt,value
2019-04-07T00:02:02.798Z,11.39
2019-04-07T00:04:33.028Z,11.35
2019-04-07T00:07:03.710Z,11.34
2019-04-07T00:09:34.354Z,11.33
2019-04-07T00:12:06.084Z,11.34
2019-04-07T00:14:36.406Z,11.33
2019-04-07T00:17:06.538Z,11.35
2019-04-07T00:19:36.571Z,11.35
2019-04-07T00:22:06.786Z,11.37
2019-04-07T00:24:36.876Z,11.36
2019-04-07T00:27:07.371Z,11.36
2019-04-07T00:29:37.850Z,11.35
2019-04-07T00:32:07.669Z,11.34
2019-04-07T00:34:38.137Z,11.34
2019-04-07T00:37:08.097Z,11.32
2019-04-07T00:39:37.950Z,11.32
2019-04-07T00:42:08.168Z,11.32
2019-04-07T00:44:38.886Z,11.32
2019-04-07T00:47:09.521Z,11.32
2019-04-07T00:49:40.164Z,11.32
2019-04-07T00:52:11.748Z,11.30
2019-04-07T00:54:41.530Z,11.28
2019-04-07T00:57:12.031Z,11.27
2019-04-07T00:59:41.834Z,11.25
2019-04-07T01:02:12.287Z,11.26
2019-04-07T01:04:42.998Z,11.26
2019-04-07T01:07:13.183Z,11.23
2019-04-07T01:09:43.240Z,11.22
2019-04-07T01:12:13.089Z,11.22
2019-04-07T01:14:43.404Z,11.20
2019-04-07T01:17:13.783Z,11.19
2019-04-07T01:19:45.420Z,11.17
2019-04-07T01:22:15.737Z,11.16
2019-04-07T01:24:45.731Z,11.13
2019-04-07T01:27:15.939Z,11.10
2019-04-07T01:29:46.348Z,11.08
2019-04-07T01:32:16.501Z,11.02
2019-04-07T01:34:46.918Z,11.02
2019-04-07T01:37:16.860Z,10.97
2019-04-07T01:39:47.050Z,10.95
2019-04-07T01:42:26.748Z,10.94
2019-04-07T01:45:20.573Z,10.92
2019-04-07T01:48:10.263Z,10.89
2019-04-07T01:51:02.344Z,10.86
2019-04-07T01:53:43.272Z,10.83
2019-04-07T01:56:21.811Z,10.78
2019-04-07T01:59:12.168Z,10.76
2019-04-07T02:01:52.669Z,10.73
2019-04-07T02:04:50.073Z,10.70
2019-04-07T02:07:39.159Z,10.67
2019-04-07T02:10:38.403Z,10.63
2019-04-07T02:13:26.575Z,10.60
2019-04-07T02:16:05.339Z,10.56
2019-04-07T02:18:42.294Z,10.53
2019-04-07T02:21:23.907Z,10.51
2019-04-07T02:24:11.611Z,10.49
2019-04-07T02:26:47.367Z,10.48
2019-04-07T02:29:55.407Z,10.48
2019-04-07T02:32:58.122Z,10.45
2019-04-07T02:35:26.072Z,10.44
2019-04-07T02:37:54.595Z,10.44
2019-04-07T02:40:45.703Z,10.45
2019-04-07T02:43:31.617Z,10.46
2019-04-07T02:46:20.688Z,10.46
2019-04-07T02:48:56.371Z,10.47
2019-04-07T02:51:35.344Z,10.50
2019-04-07T02:54:22.758Z,10.52
2019-04-07T02:57:11.818Z,10.53
2019-04-07T02:59:48.528Z,10.54
2019-04-07T03:02:31.795Z,10.55
2019-04-07T03:05:08.138Z,10.56
2019-04-07T03:07:44.972Z,10.58
2019-04-07T03:10:32.098Z,10.60
2019-04-07T03:13:24.455Z,10.59
2019-04-07T03:16:00.830Z,10.57
2019-04-07T03:19:01.981Z,10.56
2019-04-07T03:21:38.332Z,10.52
2019-04-07T03:24:26.677Z,10.50
2019-04-07T03:27:18.851Z,10.50
2019-04-07T03:30:11.327Z,10.48
2019-04-07T03:33:02.790Z,10.46
2019-04-07T03:35:37.709Z,10.42
2019-04-07T03:38:22.249Z,10.40
2019-04-07T03:40:56.954Z,10.37
2019-04-07T03:43:35.860Z,10.33
2019-04-07T03:46:25.308Z,10.31
2019-04-07T03:49:13.482Z,10.28
2019-04-07T03:51:52.768Z,10.24
2019-04-07T03:54:35.508Z,10.20
2019-04-07T03:57:25.762Z,10.17
2019-04-07T04:00:33.608Z,10.13
2019-04-07T04:03:12.924Z,10.09
2019-04-07T04:06:02.669Z,10.06
2019-04-07T04:09:02.069Z,10.02
2019-04-07T04:11:57.175Z,10.00
2019-04-07T04:14:31.808Z,9.98
2019-04-07T04:17:02.167Z,9.93
2019-04-07T04:19:32.528Z,9.92
2019-04-07T04:22:02.521Z,9.91
2019-04-07T04:24:33.560Z,9.87
2019-04-07T04:27:04.586Z,9.85
2019-04-07T04:29:34.814Z,9.81
2019-04-07T04:32:06.022Z,9.78
2019-04-07T04:34:36.714Z,9.75
2019-04-07T04:37:06.966Z,9.72
2019-04-07T04:39:37.550Z,9.69
2019-04-07T04:42:08.464Z,9.66
2019-04-07T04:44:38.601Z,9.62
2019-04-07T04:47:10.111Z,9.60
2019-04-07T04:49:41.603Z,9.59
2019-04-07T04:52:11.872Z,9.55
2019-04-07T04:54:42.136Z,9.53
2019-04-07T04:57:13.140Z,9.50
2019-04-07T04:59:44.186Z,9.49
2019-04-07T05:02:14.578Z,9.48
2019-04-07T05:04:44.826Z,9.46
2019-04-07T05:07:15.650Z,9.44
2019-04-07T05:09:49.971Z,9.41
2019-04-07T05:12:17.606Z,9.41
2019-04-07T05:14:48.054Z,9.40
2019-04-07T05:17:18.008Z,9.39
2019-04-07T05:19:48.641Z,9.39
2019-04-07T05:22:18.700Z,9.39
2019-04-07T05:24:48.840Z,9.40
2019-04-07T05:27:18.834Z,9.40
2019-04-07T05:29:49.438Z,9.41
2019-04-07T05:32:20.065Z,9.46
2019-04-07T05:34:50.567Z,9.46
2019-04-07T05:37:22.984Z,9.48
2019-04-07T05:39:53.757Z,9.51
2019-04-07T05:42:24.640Z,9.53
2019-04-07T05:44:55.172Z,9.56
2019-04-07T05:47:25.515Z,9.58
2019-04-07T05:49:58.785Z,9.60
2019-04-07T05:52:27.286Z,9.64
2019-04-07T05:54:57.863Z,9.65
2019-04-07T05:57:30.790Z,9.70
2019-04-07T05:59:59.361Z,9.75
2019-04-07T06:02:31.396Z,9.80
2019-04-07T06:05:01.235Z,9.85
2019-04-07T06:07:33.528Z,9.90
2019-04-07T06:10:03.503Z,9.93
2019-04-07T06:12:33.918Z,9.97
2019-04-07T06:15:06.270Z,10.01
2019-04-07T06:17:36.756Z,10.05
2019-04-07T06:20:12.035Z,10.10
2019-04-07T06:22:40.470Z,10.14
2019-04-07T06:25:11.203Z,10.19
2019-04-07T06:27:44.923Z,10.25
2019-04-07T06:30:13.955Z,10.32
2019-04-07T06:32:44.742Z,10.38
2019-04-07T06:35:15.985Z,10.47
2019-04-07T06:37:46.349Z,10.53
2019-04-07T06:40:20.365Z,10.61
2019-04-07T06:42:48.879Z,10.70
2019-04-07T06:45:23.428Z,10.78
2019-04-07T06:47:57.474Z,10.86
2019-04-07T06:50:49.007Z,10.95
2019-04-07T06:53:32.729Z,11.03
2019-04-07T06:56:08.953Z,11.12
2019-04-07T06:58:48.377Z,11.18
2019-04-07T07:01:37.386Z,11.40
2019-04-07T07:04:25.487Z,11.40
2019-04-07T07:07:16.736Z,11.51
2019-04-07T07:10:06.546Z,11.63
2019-04-07T07:12:51.733Z,11.78
2019-04-07T07:15:47.161Z,12.00
2019-04-07T07:18:32.611Z,12.30
2019-04-07T07:21:12.058Z,12.65
2019-04-07T07:23:47.112Z,12.97
2019-04-07T07:26:15.991Z,13.31
2019-04-07T07:28:46.959Z,13.58
2019-04-07T07:31:18.169Z,13.88
2019-04-07T07:33:49.559Z,14.20
2019-04-07T07:36:22.679Z,14.57
2019-04-07T07:38:58.834Z,14.91
2019-04-07T07:41:25.354Z,15.24
2019-04-07T07:44:00.366Z,15.56
2019-04-07T07:46:27.029Z,15.84
2019-04-07T07:49:00.707Z,16.12
2019-04-07T07:51:29.259Z,16.30
2019-04-07T07:54:01.163Z,16.53
2019-04-07T07:56:31.283Z,16.72
2019-04-07T07:59:03.487Z,16.95
2019-04-07T08:01:34.669Z,17.24
2019-04-07T08:04:06.272Z,17.54
2019-04-07T08:06:38.504Z,17.84
2019-04-07T08:09:13.965Z,17.84
2019-04-07T08:11:40.670Z,18.26
2019-04-07T08:14:14.443Z,18.26
2019-04-07T08:16:49.109Z,18.37
2019-04-07T08:19:20.101Z,18.60
2019-04-07T08:21:50.686Z,18.75
2019-04-07T08:24:21.865Z,18.84
2019-04-07T08:26:56.315Z,18.97
2019-04-07T08:29:23.722Z,19.14
2019-04-07T08:31:55.275Z,19.31
2019-04-07T08:34:25.574Z,19.47
2019-04-07T08:36:55.589Z,19.47
2019-04-07T08:39:31.189Z,19.64
2019-04-07T08:41:58.262Z,19.75
2019-04-07T08:44:29.671Z,19.99
2019-04-07T08:46:59.804Z,19.99
2019-04-07T08:49:32.303Z,20.31
2019-04-07T08:52:07.435Z,20.49
2019-04-07T08:54:33.753Z,20.58
2019-04-07T08:57:03.587Z,20.58
2019-04-07T08:59:33.437Z,20.87
2019-04-07T09:02:04.287Z,20.94
2019-04-07T09:04:36.570Z,20.94
2019-04-07T09:07:07.085Z,21.06
2019-04-07T09:09:42.800Z,21.18
2019-04-07T09:12:09.298Z,21.31
2019-04-07T09:14:40.777Z,21.65
2019-04-07T09:17:33.255Z,21.65
2019-04-07T09:20:31.959Z,21.84
2019-04-07T09:23:20.186Z,21.93
2019-04-07T09:26:14.155Z,22.15
2019-04-07T09:28:55.476Z,22.29
2019-04-07T09:31:33.316Z,22.38
2019-04-07T09:34:18.908Z,22.49
2019-04-07T09:36:55.805Z,22.72
2019-04-07T09:39:59.563Z,22.96
2019-04-07T09:42:49.652Z,23.15
2019-04-07T09:45:30.166Z,23.15
2019-04-07T09:48:08.822Z,23.23
2019-04-07T09:51:13.587Z,23.37
2019-04-07T09:53:56.653Z,23.52
2019-04-07T09:57:07.171Z,23.77
2019-04-07T10:00:02.602Z,23.89
2019-04-07T10:02:54.064Z,23.79
2019-04-07T10:05:40.197Z,23.64
2019-04-07T10:08:40.602Z,23.47
2019-04-07T10:11:39.120Z,23.46
2019-04-07T10:14:24.532Z,23.61
2019-04-07T10:17:04.061Z,23.65
2019-04-07T10:19:55.954Z,23.65
2019-04-07T10:22:32.125Z,23.61
2019-04-07T10:25:18.469Z,23.69
2019-04-07T10:27:57.214Z,23.64
2019-04-07T10:30:39.994Z,23.82
2019-04-07T10:33:19.246Z,24.12
2019-04-07T10:35:57.993Z,24.38
2019-04-07T10:38:54.132Z,24.64
2019-04-07T10:41:46.408Z,24.91
2019-04-07T10:44:26.071Z,25.08
2019-04-07T10:47:05.987Z,25.01
2019-04-07T10:49:57.562Z,25.01
2019-04-07T10:52:28.236Z,25.04
2019-04-07T10:55:26.541Z,25.01
2019-04-07T10:58:25.521Z,24.88
2019-04-07T11:01:17.767Z,24.93
2019-04-07T11:03:56.459Z,24.87
2019-04-07T11:06:35.917Z,24.77
2019-04-07T11:09:26.636Z,24.78
2019-04-07T11:12:13.057Z,24.71
2019-04-07T11:14:54.710Z,24.70
2019-04-07T11:17:41.880Z,24.87
2019-04-07T11:20:21.436Z,25.07
2019-04-07T11:23:06.227Z,25.21
2019-04-07T11:25:47.756Z,25.11
2019-04-07T11:28:32.008Z,25.32
2019-04-07T11:31:15.726Z,25.45
2019-04-07T11:33:54.320Z,25.44
2019-04-07T11:36:49.844Z,25.49
2019-04-07T11:39:38.340Z,25.61
2019-04-07T11:42:17.071Z,25.52
2019-04-07T11:45:12.401Z,25.37
2019-04-07T11:47:52.982Z,25.20
2019-04-07T11:50:30.973Z,25.01
2019-04-07T11:53:09.039Z,25.07
2019-04-07T11:56:06.222Z,25.18
2019-04-07T11:58:54.276Z,25.14
2019-04-07T12:01:41.946Z,25.18
2019-04-07T12:04:38.004Z,25.33
2019-04-07T12:07:19.132Z,25.41
2019-04-07T12:10:12.505Z,25.58
2019-04-07T12:13:16.564Z,25.82
2019-04-07T12:16:14.552Z,25.95
2019-04-07T12:19:11.318Z,25.99
2019-04-07T12:21:47.007Z,25.78
2019-04-07T12:24:39.561Z,25.66
2019-04-07T12:27:27.074Z,25.55
2019-04-07T12:30:05.431Z,25.45
2019-04-07T12:32:43.414Z,25.52
2019-04-07T12:35:41.633Z,25.66
2019-04-07T12:38:37.073Z,25.69
2019-04-07T12:41:21.596Z,25.92
2019-04-07T12:44:10.404Z,26.10
2019-04-07T12:46:50.904Z,26.17
2019-04-07T12:49:42.216Z,26.24
2019-04-07T12:52:42.215Z,26.16
2019-04-07T12:55:48.886Z,26.09
2019-04-07T12:58:46.014Z,25.91
2019-04-07T13:01:23.937Z,25.68
2019-04-07T13:04:25.470Z,25.58
2019-04-07T13:07:23.224Z,25.36
2019-04-07T13:10:21.328Z,25.20
2019-04-07T13:13:11.283Z,25.11
2019-04-07T13:15:59.145Z,25.11
2019-04-07T13:19:02.193Z,24.82
2019-04-07T13:21:30.805Z,24.47
2019-04-07T13:24:00.376Z,24.53
2019-04-07T13:26:32.044Z,24.59
2019-04-07T13:29:00.680Z,24.76
2019-04-07T13:31:36.715Z,24.90
2019-04-07T13:34:20.023Z,24.92
2019-04-07T13:37:08.054Z,25.06
2019-04-07T13:39:49.376Z,25.02
2019-04-07T13:42:27.821Z,24.99
2019-04-07T13:45:11.225Z,25.01
2019-04-07T13:47:54.646Z,24.96
2019-04-07T13:50:43.834Z,24.98
2019-04-07T13:53:43.243Z,24.98
2019-04-07T13:56:48.093Z,25.01
2019-04-07T13:59:30.592Z,25.15
2019-04-07T14:02:18.734Z,25.24
2019-04-07T14:05:07.560Z,25.24
2019-04-07T14:07:49.184Z,25.04
2019-04-07T14:10:37.228Z,25.04
2019-04-07T14:13:44.747Z,25.02
2019-04-07T14:16:33.411Z,24.81
2019-04-07T14:19:28.832Z,24.70
2019-04-07T14:22:11.149Z,24.58
2019-04-07T14:24:47.201Z,24.54
2019-04-07T14:27:28.696Z,24.62
2019-04-07T14:30:18.111Z,24.61
2019-04-07T14:32:58.985Z,24.44
2019-04-07T14:35:40.053Z,24.28
2019-04-07T14:38:16.934Z,24.14
2019-04-07T14:40:54.792Z,24.04
2019-04-07T14:43:35.128Z,23.94
2019-04-07T14:46:33.791Z,23.93
2019-04-07T14:49:15.027Z,24.00
2019-04-07T14:52:09.268Z,23.97
2019-04-07T14:55:00.261Z,23.97
2019-04-07T14:57:50.285Z,23.94
2019-04-07T15:00:42.836Z,23.92
2019-04-07T15:03:12.765Z,23.95
2019-04-07T15:05:45.086Z,23.98
2019-04-07T15:08:26.398Z,23.93
2019-04-07T15:11:04.712Z,23.92
2019-04-07T15:13:36.393Z,23.81
2019-04-07T15:16:06.563Z,23.76
2019-04-07T15:18:38.129Z,23.71
2019-04-07T15:21:08.152Z,23.71
2019-04-07T15:23:38.035Z,23.55
2019-04-07T15:26:08.952Z,23.41
2019-04-07T15:28:38.777Z,23.32
2019-04-07T15:31:09.641Z,23.26
2019-04-07T15:33:40.763Z,23.10
2019-04-07T15:36:11.766Z,23.10
2019-04-07T15:38:42.152Z,23.12
2019-04-07T15:41:16.464Z,23.03
2019-04-07T15:43:45.293Z,22.91
2019-04-07T15:46:18.074Z,22.91
2019-04-07T15:48:48.371Z,22.79
2019-04-07T15:51:19.672Z,22.79
2019-04-07T15:53:51.673Z,22.74
2019-04-07T15:56:21.409Z,22.69
2019-04-07T15:58:51.710Z,22.65
2019-04-07T16:01:20.553Z,22.62
2019-04-07T16:03:52.521Z,22.56
2019-04-07T16:06:19.546Z,22.52
2019-04-07T16:08:49.663Z,22.40
2019-04-07T16:11:19.015Z,22.40
2019-04-07T16:13:47.646Z,22.37
2019-04-07T16:16:16.471Z,22.31
2019-04-07T16:18:45.491Z,22.29
2019-04-07T16:21:14.397Z,22.26
2019-04-07T16:23:50.236Z,22.21
2019-04-07T16:26:17.609Z,22.13
2019-04-07T16:28:47.026Z,22.12
2019-04-07T16:31:17.314Z,22.04
2019-04-07T16:33:47.151Z,21.98
2019-04-07T16:36:17.337Z,21.90
2019-04-07T16:38:47.233Z,21.81
2019-04-07T16:41:17.838Z,21.81
2019-04-07T16:43:47.627Z,21.75
2019-04-07T16:46:22.530Z,21.64
2019-04-07T16:48:49.536Z,21.46
2019-04-07T16:51:19.836Z,21.46
2019-04-07T16:53:49.946Z,21.38
2019-04-07T16:56:22.018Z,21.38
2019-04-07T16:58:53.392Z,21.25
2019-04-07T17:01:25.725Z,21.25
2019-04-07T17:03:57.514Z,21.27
2019-04-07T17:06:31.843Z,21.22
2019-04-07T17:09:00.332Z,21.16
2019-04-07T17:11:32.355Z,21.07
2019-04-07T17:14:03.253Z,21.00
2019-04-07T17:16:45.007Z,20.91
2019-04-07T17:19:11.911Z,20.86
2019-04-07T17:21:42.857Z,20.76
2019-04-07T17:24:28.581Z,20.72
2019-04-07T17:26:56.192Z,20.69
2019-04-07T17:29:28.595Z,20.59
2019-04-07T17:32:01.860Z,20.56
2019-04-07T17:34:30.530Z,20.48
2019-04-07T17:37:00.865Z,20.40
2019-04-07T17:39:40.603Z,20.30
2019-04-07T17:42:14.478Z,20.27
2019-04-07T17:45:09.829Z,20.22
2019-04-07T17:48:07.278Z,20.17
2019-04-07T17:50:58.618Z,20.10
2019-04-07T17:54:02.824Z,19.99
2019-04-07T17:56:50.561Z,19.91
2019-04-07T17:59:38.622Z,19.83
2019-04-07T18:02:47.633Z,19.76
2019-04-07T18:05:24.259Z,19.68
2019-04-07T18:08:28.328Z,19.62
2019-04-07T18:11:09.855Z,19.56
2019-04-07T18:14:05.758Z,19.46
2019-04-07T18:16:59.186Z,19.37
2019-04-07T18:19:37.890Z,19.29
2019-04-07T18:22:29.855Z,19.19
2019-04-07T18:25:08.855Z,19.13
2019-04-07T18:27:46.175Z,19.05
2019-04-07T18:30:22.154Z,18.99
2019-04-07T18:33:09.891Z,18.93
2019-04-07T18:35:58.264Z,18.87
2019-04-07T18:38:56.202Z,18.79
2019-04-07T18:42:02.088Z,18.72
2019-04-07T18:44:46.743Z,18.63
2019-04-07T18:47:34.935Z,18.51
2019-04-07T18:50:30.735Z,18.41
2019-04-07T18:53:14.675Z,18.31
2019-04-07T18:56:02.345Z,18.22
2019-04-07T18:58:38.515Z,18.11
2019-04-07T19:01:45.831Z,18.05
2019-04-07T19:04:38.837Z,17.79
2019-04-07T19:07:24.918Z,17.79
2019-04-07T19:10:17.668Z,17.72
2019-04-07T19:13:09.439Z,17.63
2019-04-07T19:15:41.895Z,17.45
2019-04-07T19:18:31.509Z,17.45
2019-04-07T19:21:24.743Z,17.37
2019-04-07T19:24:30.066Z,17.30
2019-04-07T19:27:33.184Z,17.20
2019-04-07T19:30:15.551Z,17.09
2019-04-07T19:33:11.015Z,16.95
2019-04-07T19:35:51.876Z,16.95
2019-04-07T19:38:29.818Z,16.87
2019-04-07T19:41:15.049Z,16.80
2019-04-07T19:43:57.194Z,16.76
2019-04-07T19:47:00.039Z,16.70
2019-04-07T19:49:41.645Z,16.66
2019-04-07T19:52:34.239Z,16.56
2019-04-07T19:55:19.877Z,16.56
2019-04-07T19:58:09.827Z,16.50
2019-04-07T20:00:57.777Z,16.45
2019-04-07T20:03:58.231Z,16.41
2019-04-07T20:06:39.788Z,16.34
2019-04-07T20:09:22.230Z,16.28
2019-04-07T20:12:14.080Z,16.23
2019-04-07T20:15:06.928Z,16.17
2019-04-07T20:17:50.553Z,16.12
2019-04-07T20:20:33.644Z,16.06
2019-04-07T20:23:28.505Z,16.00
2019-04-07T20:26:03.743Z,15.94
2019-04-07T20:29:06.965Z,15.87
2019-04-07T20:31:52.057Z,15.82
2019-04-07T20:34:42.835Z,15.76
2019-04-07T20:37:38.135Z,15.72
2019-04-07T20:40:26.648Z,15.65
2019-04-07T20:43:28.437Z,15.60
2019-04-07T20:46:19.123Z,15.54
2019-04-07T20:48:56.695Z,15.49
2019-04-07T20:51:35.455Z,15.44
2019-04-07T20:54:22.328Z,15.40
2019-04-07T20:57:09.493Z,15.35
2019-04-07T20:59:51.335Z,15.28
2019-04-07T21:02:37.735Z,15.24
2019-04-07T21:05:18.653Z,15.20
2019-04-07T21:08:24.286Z,15.17
2019-04-07T21:11:07.662Z,15.13
2019-04-07T21:13:54.571Z,15.07
2019-04-07T21:16:40.096Z,15.04
2019-04-07T21:19:35.710Z,15.01
2019-04-07T21:22:31.444Z,14.97
2019-04-07T21:25:32.820Z,14.92
2019-04-07T21:28:27.595Z,14.87
2019-04-07T21:34:08.842Z,14.79
2019-04-07T21:37:14.767Z,14.76
2019-04-07T21:39:56.853Z,14.74
2019-04-07T21:42:53.104Z,14.71
2019-04-07T21:45:40.991Z,14.68
2019-04-07T21:48:18.447Z,14.64
2019-04-07T21:51:06.570Z,14.60
2019-04-07T21:54:03.987Z,14.57
2019-04-07T21:56:45.242Z,14.55
2019-04-07T21:59:37.864Z,14.53
2019-04-07T22:02:13.799Z,14.50
2019-04-07T22:04:56.840Z,14.48
2019-04-07T22:07:35.668Z,14.44
2019-04-07T22:10:07.427Z,14.41
2019-04-07T22:12:38.079Z,14.37
2019-04-07T22:15:12.803Z,14.35
2019-04-07T22:17:41.762Z,14.31
2019-04-07T22:20:14.847Z,14.28
2019-04-07T22:22:45.229Z,14.26
2019-04-07T22:25:21.460Z,14.21
2019-04-07T22:27:54.455Z,14.17
2019-04-07T22:30:24.210Z,14.13
2019-04-07T22:32:55.642Z,14.12
2019-04-07T22:35:25.450Z,14.10
2019-04-07T22:37:55.278Z,14.08
2019-04-07T22:40:26.654Z,14.05
2019-04-07T22:42:57.314Z,14.04
2019-04-07T22:45:29.935Z,14.01
2019-04-07T22:47:59.274Z,13.98
2019-04-07T22:50:30.524Z,13.94
2019-04-07T22:53:01.738Z,13.93
2019-04-07T22:55:34.221Z,13.90
2019-04-07T22:58:05.769Z,13.88
2019-04-07T23:00:36.027Z,13.83
2019-04-07T23:03:05.924Z,13.80
2019-04-07T23:05:35.766Z,13.76
2019-04-07T23:08:06.311Z,13.74
2019-04-07T23:10:37.910Z,13.71
2019-04-07T23:13:08.292Z,13.67
2019-04-07T23:15:44.346Z,13.63
2019-04-07T23:18:09.864Z,13.59
2019-04-07T23:20:39.765Z,13.56
2019-04-07T23:23:09.683Z,13.54
2019-04-07T23:25:39.559Z,13.49
2019-04-07T23:28:10.355Z,13.47
2019-04-07T23:30:40.874Z,13.41
2019-04-07T23:33:12.483Z,13.37
2019-04-07T23:35:42.644Z,13.32
2019-04-07T23:38:13.384Z,13.27
2019-04-07T23:40:43.663Z,13.21
2019-04-07T23:43:13.926Z,13.17
2019-04-07T23:45:44.152Z,13.13
2019-04-07T23:48:14.053Z,13.12
2019-04-07T23:50:44.202Z,13.08
2019-04-07T23:53:50.664Z,13.06
2019-04-07T23:56:20.988Z,13.03
2019-04-07T23:58:49.937Z,12.99
